sensor_id;sensor_type;location;lat;lon;timestamp;temperature;humidity
37658;DHT22;23500;53.268;8.308;2023-07-02T00:02:21;21.90;66.60
37658;DHT22;23500;53.268;8.308;2023-07-02T00:04:46;21.90;66.60
37658;DHT22;23500;53.268;8.308;2023-07-02T00:07:12;21.90;66.70
37658;DHT22;23500;53.268;8.308;2023-07-02T00:09:40;21.80;66.60
37658;DHT22;23500;53.268;8.308;2023-07-02T00:12:06;21.80;66.60
37658;DHT22;23500;53.268;8.308;2023-07-02T00:14:32;21.80;66.60
37658;DHT22;23500;53.268;8.308;2023-07-02T00:16:58;21.80;66.60
37658;DHT22;23500;53.268;8.308;2023-07-02T00:19:24;21.80;66.60
37658;DHT22;23500;53.268;8.308;2023-07-02T00:21:50;21.80;66.60
37658;DHT22;23500;53.268;8.308;2023-07-02T00:24:18;21.90;66.70
37658;DHT22;23500;53.268;8.308;2023-07-02T00:26:44;21.80;66.60
37658;DHT22;23500;53.268;8.308;2023-07-02T00:29:10;21.80;66.60
37658;DHT22;23500;53.268;8.308;2023-07-02T00:31:36;21.80;66.60
37658;DHT22;23500;53.268;8.308;2023-07-02T00:34:02;21.80;66.60
37658;DHT22;23500;53.268;8.308;2023-07-02T00:36:29;21.80;66.60
37658;DHT22;23500;53.268;8.308;2023-07-02T00:38:55;21.80;66.60
37658;DHT22;23500;53.268;8.308;2023-07-02T00:41:21;21.80;66.60
37658;DHT22;23500;53.268;8.308;2023-07-02T00:43:46;21.80;66.60
37658;DHT22;23500;53.268;8.308;2023-07-02T00:46:16;21.80;66.60
37658;DHT22;23500;53.268;8.308;2023-07-02T00:48:53;21.80;66.60
37658;DHT22;23500;53.268;8.308;2023-07-02T00:51:28;21.80;66.60
37658;DHT22;23500;53.268;8.308;2023-07-02T00:53:55;21.80;66.70
37658;DHT22;23500;53.268;8.308;2023-07-02T00:56:22;21.80;66.60
37658;DHT22;23500;53.268;8.308;2023-07-02T00:58:50;21.80;66.70
37658;DHT22;23500;53.268;8.308;2023-07-02T01:01:17;21.80;66.70
37658;DHT22;23500;53.268;8.308;2023-07-02T01:03:54;21.80;66.70
37658;DHT22;23500;53.268;8.308;2023-07-02T01:06:28;21.80;66.70
37658;DHT22;23500;53.268;8.308;2023-07-02T01:08:55;21.80;66.70
37658;DHT22;23500;53.268;8.308;2023-07-02T01:11:27;21.80;66.70
37658;DHT22;23500;53.268;8.308;2023-07-02T01:13:56;21.80;66.70
37658;DHT22;23500;53.268;8.308;2023-07-02T01:16:24;21.80;66.70
37658;DHT22;23500;53.268;8.308;2023-07-02T01:18:51;21.80;66.70
37658;DHT22;23500;53.268;8.308;2023-07-02T01:21:21;21.80;66.70
37658;DHT22;23500;53.268;8.308;2023-07-02T01:23:47;21.80;66.70
37658;DHT22;23500;53.268;8.308;2023-07-02T01:26:13;21.80;66.70
37658;DHT22;23500;53.268;8.308;2023-07-02T01:28:39;21.80;66.70
37658;DHT22;23500;53.268;8.308;2023-07-02T01:31:05;21.80;67.40
37658;DHT22;23500;53.268;8.308;2023-07-02T01:33:31;21.70;66.70
37658;DHT22;23500;53.268;8.308;2023-07-02T01:35:56;21.80;66.70
37658;DHT22;23500;53.268;8.308;2023-07-02T01:38:22;21.80;66.70
37658;DHT22;23500;53.268;8.308;2023-07-02T01:40:48;21.80;66.70
37658;DHT22;23500;53.268;8.308;2023-07-02T01:43:14;21.80;66.70
37658;DHT22;23500;53.268;8.308;2023-07-02T01:45:41;21.80;66.70
37658;DHT22;23500;53.268;8.308;2023-07-02T01:48:07;21.80;66.80
37658;DHT22;23500;53.268;8.308;2023-07-02T01:50:33;21.80;66.80
37658;DHT22;23500;53.268;8.308;2023-07-02T01:52:59;21.80;66.80
37658;DHT22;23500;53.268;8.308;2023-07-02T01:55:25;21.70;66.80
37658;DHT22;23500;53.268;8.308;2023-07-02T01:57:50;21.80;66.90
37658;DHT22;23500;53.268;8.308;2023-07-02T02:00:16;21.80;66.90
37658;DHT22;23500;53.268;8.308;2023-07-02T02:02:43;21.70;66.80
37658;DHT22;23500;53.268;8.308;2023-07-02T02:05:08;21.70;66.80
37658;DHT22;23500;53.268;8.308;2023-07-02T02:07:36;21.70;66.80
37658;DHT22;23500;53.268;8.308;2023-07-02T02:10:02;21.80;66.90
37658;DHT22;23500;53.268;8.308;2023-07-02T02:12:29;21.80;66.90
37658;DHT22;23500;53.268;8.308;2023-07-02T02:14:55;21.70;66.80
37658;DHT22;23500;53.268;8.308;2023-07-02T02:17:21;21.70;66.80
37658;DHT22;23500;53.268;8.308;2023-07-02T02:19:49;21.70;66.80
37658;DHT22;23500;53.268;8.308;2023-07-02T02:22:15;21.70;66.80
37658;DHT22;23500;53.268;8.308;2023-07-02T02:24:40;21.70;66.80
37658;DHT22;23500;53.268;8.308;2023-07-02T02:27:06;21.70;66.80
37658;DHT22;23500;53.268;8.308;2023-07-02T02:29:32;21.70;66.90
37658;DHT22;23500;53.268;8.308;2023-07-02T02:31:57;21.70;66.80
37658;DHT22;23500;53.268;8.308;2023-07-02T02:34:23;21.70;66.80
37658;DHT22;23500;53.268;8.308;2023-07-02T02:36:48;21.70;66.90
37658;DHT22;23500;53.268;8.308;2023-07-02T02:39:14;21.70;66.80
37658;DHT22;23500;53.268;8.308;2023-07-02T02:41:40;21.70;66.90
37658;DHT22;23500;53.268;8.308;2023-07-02T02:44:06;21.70;66.90
37658;DHT22;23500;53.268;8.308;2023-07-02T02:46:32;21.70;66.90
37658;DHT22;23500;53.268;8.308;2023-07-02T02:48:57;21.70;66.80
37658;DHT22;23500;53.268;8.308;2023-07-02T02:51:23;21.70;66.90
37658;DHT22;23500;53.268;8.308;2023-07-02T02:53:49;21.70;66.90
37658;DHT22;23500;53.268;8.308;2023-07-02T02:56:14;21.70;66.90
37658;DHT22;23500;53.268;8.308;2023-07-02T02:58:40;21.70;66.90
37658;DHT22;23500;53.268;8.308;2023-07-02T03:01:06;21.70;66.90
37658;DHT22;23500;53.268;8.308;2023-07-02T03:03:38;21.70;66.90
37658;DHT22;23500;53.268;8.308;2023-07-02T03:06:05;21.70;66.90
37658;DHT22;23500;53.268;8.308;2023-07-02T03:08:31;21.70;66.90
37658;DHT22;23500;53.268;8.308;2023-07-02T03:10:57;21.70;66.90
37658;DHT22;23500;53.268;8.308;2023-07-02T03:13:22;21.70;66.90
37658;DHT22;23500;53.268;8.308;2023-07-02T03:15:48;21.70;66.90
37658;DHT22;23500;53.268;8.308;2023-07-02T03:18:14;21.70;66.90
37658;DHT22;23500;53.268;8.308;2023-07-02T03:20:39;21.70;66.90
37658;DHT22;23500;53.268;8.308;2023-07-02T03:23:05;21.70;66.90
37658;DHT22;23500;53.268;8.308;2023-07-02T03:25:30;21.70;66.90
37658;DHT22;23500;53.268;8.308;2023-07-02T03:27:56;21.70;66.90
37658;DHT22;23500;53.268;8.308;2023-07-02T03:30:22;21.70;66.90
37658;DHT22;23500;53.268;8.308;2023-07-02T03:32:47;21.70;66.90
37658;DHT22;23500;53.268;8.308;2023-07-02T03:35:13;21.70;67.00
37658;DHT22;23500;53.268;8.308;2023-07-02T03:37:39;21.70;66.90
37658;DHT22;23500;53.268;8.308;2023-07-02T03:40:09;21.70;66.90
37658;DHT22;23500;53.268;8.308;2023-07-02T03:42:35;21.70;66.90
37658;DHT22;23500;53.268;8.308;2023-07-02T03:45:00;21.70;67.00
37658;DHT22;23500;53.268;8.308;2023-07-02T03:47:26;21.70;67.00
37658;DHT22;23500;53.268;8.308;2023-07-02T03:49:51;21.70;67.00
37658;DHT22;23500;53.268;8.308;2023-07-02T03:52:17;21.70;67.00
37658;DHT22;23500;53.268;8.308;2023-07-02T03:54:43;21.70;67.00
37658;DHT22;23500;53.268;8.308;2023-07-02T03:57:08;21.70;67.00
37658;DHT22;23500;53.268;8.308;2023-07-02T03:59:34;21.70;67.70
37658;DHT22;23500;53.268;8.308;2023-07-02T04:02:00;21.70;67.00
37658;DHT22;23500;53.268;8.308;2023-07-02T04:04:26;21.70;67.00
37658;DHT22;23500;53.268;8.308;2023-07-02T04:06:52;21.70;67.00
37658;DHT22;23500;53.268;8.308;2023-07-02T04:09:17;21.70;67.00
37658;DHT22;23500;53.268;8.308;2023-07-02T04:11:44;21.70;66.90
37658;DHT22;23500;53.268;8.308;2023-07-02T04:14:09;21.70;67.00
37658;DHT22;23500;53.268;8.308;2023-07-02T04:16:35;21.70;66.90
37658;DHT22;23500;53.268;8.308;2023-07-02T04:19:01;21.70;66.80
37658;DHT22;23500;53.268;8.308;2023-07-02T04:21:26;21.70;66.80
37658;DHT22;23500;53.268;8.308;2023-07-02T04:23:52;21.80;66.80
37658;DHT22;23500;53.268;8.308;2023-07-02T04:26:18;21.80;66.70
37658;DHT22;23500;53.268;8.308;2023-07-02T04:28:44;21.80;66.60
37658;DHT22;23500;53.268;8.308;2023-07-02T04:31:09;21.80;66.50
37658;DHT22;23500;53.268;8.308;2023-07-02T04:33:35;21.90;66.50
37658;DHT22;23500;53.268;8.308;2023-07-02T04:36:04;21.90;66.50
37658;DHT22;23500;53.268;8.308;2023-07-02T04:38:30;21.90;66.50
37658;DHT22;23500;53.268;8.308;2023-07-02T04:40:56;21.90;66.40
37658;DHT22;23500;53.268;8.308;2023-07-02T04:43:33;21.90;66.40
37658;DHT22;23500;53.268;8.308;2023-07-02T04:45:59;22.00;66.40
37658;DHT22;23500;53.268;8.308;2023-07-02T04:48:25;22.00;66.40
37658;DHT22;23500;53.268;8.308;2023-07-02T04:50:51;22.00;66.40
37658;DHT22;23500;53.268;8.308;2023-07-02T04:53:16;22.00;66.40
37658;DHT22;23500;53.268;8.308;2023-07-02T04:55:43;22.00;66.30
37658;DHT22;23500;53.268;8.308;2023-07-02T04:58:09;22.10;66.30
37658;DHT22;23500;53.268;8.308;2023-07-02T05:00:34;22.10;66.30
37658;DHT22;23500;53.268;8.308;2023-07-02T05:03:00;22.10;66.30
37658;DHT22;23500;53.268;8.308;2023-07-02T05:05:26;22.10;66.20
37658;DHT22;23500;53.268;8.308;2023-07-02T05:07:53;22.10;66.20
37658;DHT22;23500;53.268;8.308;2023-07-02T05:10:18;22.20;66.20
37658;DHT22;23500;53.268;8.308;2023-07-02T05:12:44;22.20;66.20
37658;DHT22;23500;53.268;8.308;2023-07-02T05:15:10;22.20;66.20
37658;DHT22;23500;53.268;8.308;2023-07-02T05:17:37;22.20;66.20
37658;DHT22;23500;53.268;8.308;2023-07-02T05:20:03;22.20;66.10
37658;DHT22;23500;53.268;8.308;2023-07-02T05:22:30;22.30;66.10
37658;DHT22;23500;53.268;8.308;2023-07-02T05:24:55;22.30;66.10
37658;DHT22;23500;53.268;8.308;2023-07-02T05:27:21;22.30;66.10
37658;DHT22;23500;53.268;8.308;2023-07-02T05:29:47;22.30;66.10
37658;DHT22;23500;53.268;8.308;2023-07-02T05:32:12;22.30;66.10
37658;DHT22;23500;53.268;8.308;2023-07-02T05:34:38;22.40;66.80
37658;DHT22;23500;53.268;8.308;2023-07-02T05:37:05;22.40;66.00
37658;DHT22;23500;53.268;8.308;2023-07-02T05:39:30;22.40;66.00
37658;DHT22;23500;53.268;8.308;2023-07-02T05:41:56;22.40;66.00
37658;DHT22;23500;53.268;8.308;2023-07-02T05:44:22;22.40;66.00
37658;DHT22;23500;53.268;8.308;2023-07-02T05:46:48;22.50;66.00
37658;DHT22;23500;53.268;8.308;2023-07-02T05:49:13;22.50;65.90
37658;DHT22;23500;53.268;8.308;2023-07-02T05:51:39;22.50;65.90
37658;DHT22;23500;53.268;8.308;2023-07-02T05:54:05;22.50;65.90
37658;DHT22;23500;53.268;8.308;2023-07-02T05:56:31;22.50;65.90
37658;DHT22;23500;53.268;8.308;2023-07-02T05:58:57;22.50;65.90
37658;DHT22;23500;53.268;8.308;2023-07-02T06:01:22;22.50;65.80
37658;DHT22;23500;53.268;8.308;2023-07-02T06:03:50;22.60;65.80
37658;DHT22;23500;53.268;8.308;2023-07-02T06:06:16;22.60;65.80
37658;DHT22;23500;53.268;8.308;2023-07-02T06:08:41;22.60;65.80
37658;DHT22;23500;53.268;8.308;2023-07-02T06:11:08;22.60;65.80
37658;DHT22;23500;53.268;8.308;2023-07-02T06:13:34;22.60;65.80
37658;DHT22;23500;53.268;8.308;2023-07-02T06:16:00;22.60;65.70
37658;DHT22;23500;53.268;8.308;2023-07-02T06:18:26;22.60;65.70
37658;DHT22;23500;53.268;8.308;2023-07-02T06:20:51;22.60;65.70
37658;DHT22;23500;53.268;8.308;2023-07-02T06:23:17;22.70;65.80
37658;DHT22;23500;53.268;8.308;2023-07-02T06:25:43;22.70;65.80
37658;DHT22;23500;53.268;8.308;2023-07-02T06:28:09;22.70;65.80
37658;DHT22;23500;53.268;8.308;2023-07-02T06:30:35;22.70;65.70
37658;DHT22;23500;53.268;8.308;2023-07-02T06:33:01;22.70;65.70
37658;DHT22;23500;53.268;8.308;2023-07-02T06:35:26;22.70;65.70
37658;DHT22;23500;53.268;8.308;2023-07-02T06:37:52;22.70;65.70
37658;DHT22;23500;53.268;8.308;2023-07-02T06:40:18;22.70;65.70
37658;DHT22;23500;53.268;8.308;2023-07-02T06:42:43;22.70;65.70
37658;DHT22;23500;53.268;8.308;2023-07-02T06:45:09;22.70;65.70
37658;DHT22;23500;53.268;8.308;2023-07-02T06:47:34;22.80;65.70
37658;DHT22;23500;53.268;8.308;2023-07-02T06:50:00;22.80;65.70
37658;DHT22;23500;53.268;8.308;2023-07-02T06:52:26;22.80;65.70
37658;DHT22;23500;53.268;8.308;2023-07-02T06:54:51;22.80;65.80
37658;DHT22;23500;53.268;8.308;2023-07-02T06:57:17;22.80;65.70
37658;DHT22;23500;53.268;8.308;2023-07-02T06:59:43;22.80;66.40
37658;DHT22;23500;53.268;8.308;2023-07-02T07:02:08;22.80;65.70
37658;DHT22;23500;53.268;8.308;2023-07-02T07:04:34;22.80;65.70
37658;DHT22;23500;53.268;8.308;2023-07-02T07:07:00;22.80;65.70
37658;DHT22;23500;53.268;8.308;2023-07-02T07:09:28;22.80;65.70
37658;DHT22;23500;53.268;8.308;2023-07-02T07:11:54;22.80;65.70
37658;DHT22;23500;53.268;8.308;2023-07-02T07:14:19;22.80;65.70
37658;DHT22;23500;53.268;8.308;2023-07-02T07:16:45;22.80;65.80
37658;DHT22;23500;53.268;8.308;2023-07-02T07:19:11;22.80;65.90
37658;DHT22;23500;53.268;8.308;2023-07-02T07:21:36;22.80;66.00
37658;DHT22;23500;53.268;8.308;2023-07-02T07:24:02;22.80;66.00
37658;DHT22;23500;53.268;8.308;2023-07-02T07:26:28;22.80;65.90
37658;DHT22;23500;53.268;8.308;2023-07-02T07:28:54;22.80;65.90
37658;DHT22;23500;53.268;8.308;2023-07-02T07:31:21;22.80;65.90
37658;DHT22;23500;53.268;8.308;2023-07-02T07:33:47;22.80;66.00
37658;DHT22;23500;53.268;8.308;2023-07-02T07:36:12;22.80;66.00
37658;DHT22;23500;53.268;8.308;2023-07-02T07:38:39;22.80;66.00
37658;DHT22;23500;53.268;8.308;2023-07-02T07:41:05;22.80;66.00
37658;DHT22;23500;53.268;8.308;2023-07-02T07:43:30;22.80;66.00
37658;DHT22;23500;53.268;8.308;2023-07-02T07:45:56;22.80;66.00
37658;DHT22;23500;53.268;8.308;2023-07-02T07:48:22;22.80;66.00
37658;DHT22;23500;53.268;8.308;2023-07-02T07:50:47;22.80;66.00
37658;DHT22;23500;53.268;8.308;2023-07-02T07:53:14;22.80;66.00
37658;DHT22;23500;53.268;8.308;2023-07-02T07:55:39;22.80;66.00
37658;DHT22;23500;53.268;8.308;2023-07-02T07:58:05;22.80;66.00
37658;DHT22;23500;53.268;8.308;2023-07-02T08:00:31;22.80;66.00
37658;DHT22;23500;53.268;8.308;2023-07-02T08:02:56;22.80;66.10
37658;DHT22;23500;53.268;8.308;2023-07-02T08:05:22;22.80;66.00
37658;DHT22;23500;53.268;8.308;2023-07-02T08:07:48;22.80;66.10
37658;DHT22;23500;53.268;8.308;2023-07-02T08:10:14;22.80;66.10
37658;DHT22;23500;53.268;8.308;2023-07-02T08:12:40;22.80;66.10
37658;DHT22;23500;53.268;8.308;2023-07-02T08:15:06;22.80;66.10
37658;DHT22;23500;53.268;8.308;2023-07-02T08:17:32;22.80;66.10
37658;DHT22;23500;53.268;8.308;2023-07-02T08:19:57;22.70;66.10
37658;DHT22;23500;53.268;8.308;2023-07-02T08:22:23;22.70;66.10
37658;DHT22;23500;53.268;8.308;2023-07-02T08:24:49;22.70;66.10
37658;DHT22;23500;53.268;8.308;2023-07-02T08:27:16;22.70;66.10
37658;DHT22;23500;53.268;8.308;2023-07-02T08:29:46;22.70;66.10
37658;DHT22;23500;53.268;8.308;2023-07-02T08:32:12;22.70;66.10
37658;DHT22;23500;53.268;8.308;2023-07-02T08:34:38;22.70;66.10
37658;DHT22;23500;53.268;8.308;2023-07-02T08:37:04;22.70;66.30
37658;DHT22;23500;53.268;8.308;2023-07-02T08:39:29;22.70;66.20
37658;DHT22;23500;53.268;8.308;2023-07-02T08:41:55;22.70;66.20
37658;DHT22;23500;53.268;8.308;2023-07-02T08:44:21;22.70;66.30
37658;DHT22;23500;53.268;8.308;2023-07-02T08:46:47;22.60;66.20
37658;DHT22;23500;53.268;8.308;2023-07-02T08:49:18;22.60;66.20
37658;DHT22;23500;53.268;8.308;2023-07-02T08:51:45;22.60;66.20
37658;DHT22;23500;53.268;8.308;2023-07-02T08:54:11;22.60;66.20
37658;DHT22;23500;53.268;8.308;2023-07-02T08:56:38;22.60;66.30
37658;DHT22;23500;53.268;8.308;2023-07-02T08:59:07;22.60;66.20
37658;DHT22;23500;53.268;8.308;2023-07-02T09:01:32;22.60;66.30
37658;DHT22;23500;53.268;8.308;2023-07-02T09:03:59;22.60;66.30
37658;DHT22;23500;53.268;8.308;2023-07-02T09:06:27;22.60;66.30
37658;DHT22;23500;53.268;8.308;2023-07-02T09:09:02;22.60;66.30
37658;DHT22;23500;53.268;8.308;2023-07-02T09:11:28;22.60;66.30
37658;DHT22;23500;53.268;8.308;2023-07-02T09:13:54;22.60;66.30
37658;DHT22;23500;53.268;8.308;2023-07-02T09:16:33;22.60;66.30
37658;DHT22;23500;53.268;8.308;2023-07-02T09:19:08;22.60;67.00
37658;DHT22;23500;53.268;8.308;2023-07-02T09:21:45;22.60;66.30
37658;DHT22;23500;53.268;8.308;2023-07-02T09:24:19;22.60;66.40
37658;DHT22;23500;53.268;8.308;2023-07-02T09:26:53;22.60;66.40
37658;DHT22;23500;53.268;8.308;2023-07-02T09:29:25;22.50;66.30
37658;DHT22;23500;53.268;8.308;2023-07-02T09:31:55;22.50;66.40
37658;DHT22;23500;53.268;8.308;2023-07-02T09:34:27;22.50;66.40
37658;DHT22;23500;53.268;8.308;2023-07-02T09:36:53;22.50;66.40
37658;DHT22;23500;53.268;8.308;2023-07-02T09:39:24;22.50;66.40
37658;DHT22;23500;53.268;8.308;2023-07-02T09:41:51;22.50;66.40
37658;DHT22;23500;53.268;8.308;2023-07-02T09:44:17;22.50;66.40
37658;DHT22;23500;53.268;8.308;2023-07-02T09:47:06;22.50;66.50
37658;DHT22;23500;53.268;8.308;2023-07-02T09:49:36;22.50;66.40
37658;DHT22;23500;53.268;8.308;2023-07-02T09:52:10;22.50;66.50
37658;DHT22;23500;53.268;8.308;2023-07-02T09:54:36;22.50;66.50
37658;DHT22;23500;53.268;8.308;2023-07-02T09:57:03;22.50;66.50
37658;DHT22;23500;53.268;8.308;2023-07-02T09:59:30;22.50;66.50
37658;DHT22;23500;53.268;8.308;2023-07-02T10:01:57;22.50;66.50
37658;DHT22;23500;53.268;8.308;2023-07-02T10:04:23;22.50;66.50
37658;DHT22;23500;53.268;8.308;2023-07-02T10:06:56;22.50;66.50
37658;DHT22;23500;53.268;8.308;2023-07-02T10:09:43;22.50;66.50
37658;DHT22;23500;53.268;8.308;2023-07-02T10:12:18;22.50;66.50
37658;DHT22;23500;53.268;8.308;2023-07-02T10:14:45;22.50;66.60
37658;DHT22;23500;53.268;8.308;2023-07-02T10:17:11;22.50;66.60
37658;DHT22;23500;53.268;8.308;2023-07-02T10:19:55;22.50;66.50
37658;DHT22;23500;53.268;8.308;2023-07-02T10:22:21;22.50;66.60
37658;DHT22;23500;53.268;8.308;2023-07-02T10:25:05;22.50;66.60
37658;DHT22;23500;53.268;8.308;2023-07-02T10:27:41;22.50;66.60
37658;DHT22;23500;53.268;8.308;2023-07-02T10:30:08;22.50;66.70
37658;DHT22;23500;53.268;8.308;2023-07-02T10:32:35;22.50;66.60
37658;DHT22;23500;53.268;8.308;2023-07-02T10:35:17;22.50;66.70
37658;DHT22;23500;53.268;8.308;2023-07-02T10:37:43;22.50;67.40
37658;DHT22;23500;53.268;8.308;2023-07-02T10:40:10;22.50;66.60
37658;DHT22;23500;53.268;8.308;2023-07-02T10:42:51;22.50;66.60
37658;DHT22;23500;53.268;8.308;2023-07-02T10:45:18;22.50;66.60
37658;DHT22;23500;53.268;8.308;2023-07-02T10:47:45;22.50;66.70
37658;DHT22;23500;53.268;8.308;2023-07-02T10:50:21;22.50;66.70
37658;DHT22;23500;53.268;8.308;2023-07-02T10:52:48;22.50;66.70
37658;DHT22;23500;53.268;8.308;2023-07-02T10:55:21;22.50;66.70
37658;DHT22;23500;53.268;8.308;2023-07-02T10:57:48;22.50;66.70
37658;DHT22;23500;53.268;8.308;2023-07-02T11:00:16;22.50;66.70
37658;DHT22;23500;53.268;8.308;2023-07-02T11:02:42;22.50;66.80
37658;DHT22;23500;53.268;8.308;2023-07-02T11:05:08;22.50;66.80
37658;DHT22;23500;53.268;8.308;2023-07-02T11:07:42;22.50;66.80
37658;DHT22;23500;53.268;8.308;2023-07-02T11:10:08;22.50;66.80
37658;DHT22;23500;53.268;8.308;2023-07-02T11:12:35;22.50;66.80
37658;DHT22;23500;53.268;8.308;2023-07-02T11:15:13;22.50;66.80
37658;DHT22;23500;53.268;8.308;2023-07-02T11:17:40;22.50;66.70
37658;DHT22;23500;53.268;8.308;2023-07-02T11:20:08;22.50;66.60
37658;DHT22;23500;53.268;8.308;2023-07-02T11:22:35;22.50;67.50
37658;DHT22;23500;53.268;8.308;2023-07-02T11:25:16;22.50;66.80
37658;DHT22;23500;53.268;8.308;2023-07-02T11:27:43;22.50;66.80
37658;DHT22;23500;53.268;8.308;2023-07-02T11:30:09;22.50;66.80
37658;DHT22;23500;53.268;8.308;2023-07-02T11:32:49;22.50;66.90
37658;DHT22;23500;53.268;8.308;2023-07-02T11:35:15;22.50;66.80
37658;DHT22;23500;53.268;8.308;2023-07-02T11:37:42;22.50;66.80
37658;DHT22;23500;53.268;8.308;2023-07-02T11:40:08;22.50;66.80
37658;DHT22;23500;53.268;8.308;2023-07-02T11:42:34;22.50;66.80
37658;DHT22;23500;53.268;8.308;2023-07-02T11:44:59;22.50;66.90
37658;DHT22;23500;53.268;8.308;2023-07-02T11:47:25;22.50;66.80
37658;DHT22;23500;53.268;8.308;2023-07-02T11:49:53;22.50;66.80
37658;DHT22;23500;53.268;8.308;2023-07-02T11:52:20;22.50;66.80
37658;DHT22;23500;53.268;8.308;2023-07-02T11:54:46;22.50;66.80
37658;DHT22;23500;53.268;8.308;2023-07-02T11:57:12;22.50;66.80
37658;DHT22;23500;53.268;8.308;2023-07-02T11:59:38;22.50;66.80
37658;DHT22;23500;53.268;8.308;2023-07-02T12:02:04;22.50;66.80
37658;DHT22;23500;53.268;8.308;2023-07-02T12:04:30;22.50;66.80
37658;DHT22;23500;53.268;8.308;2023-07-02T12:06:55;22.50;66.80
37658;DHT22;23500;53.268;8.308;2023-07-02T12:09:21;22.50;67.50
37658;DHT22;23500;53.268;8.308;2023-07-02T12:11:47;22.50;66.80
37658;DHT22;23500;53.268;8.308;2023-07-02T12:14:12;22.50;66.80
37658;DHT22;23500;53.268;8.308;2023-07-02T12:16:38;22.50;66.80
37658;DHT22;23500;53.268;8.308;2023-07-02T12:19:04;22.50;66.80
37658;DHT22;23500;53.268;8.308;2023-07-02T12:21:30;22.50;67.00
37658;DHT22;23500;53.268;8.308;2023-07-02T12:23:55;22.50;66.90
37658;DHT22;23500;53.268;8.308;2023-07-02T12:26:21;22.50;66.90
37658;DHT22;23500;53.268;8.308;2023-07-02T12:28:47;22.50;66.90
37658;DHT22;23500;53.268;8.308;2023-07-02T12:31:12;22.50;67.00
37658;DHT22;23500;53.268;8.308;2023-07-02T12:33:39;22.50;67.00
37658;DHT22;23500;53.268;8.308;2023-07-02T12:36:05;22.50;67.00
37658;DHT22;23500;53.268;8.308;2023-07-02T12:38:30;22.40;66.90
37658;DHT22;23500;53.268;8.308;2023-07-02T12:40:56;22.50;67.00
37658;DHT22;23500;53.268;8.308;2023-07-02T12:43:22;22.50;66.90
37658;DHT22;23500;53.268;8.308;2023-07-02T12:45:48;22.50;66.90
37658;DHT22;23500;53.268;8.308;2023-07-02T12:48:13;22.50;67.00
37658;DHT22;23500;53.268;8.308;2023-07-02T12:50:39;22.40;66.90
37658;DHT22;23500;53.268;8.308;2023-07-02T12:53:05;22.40;66.90
37658;DHT22;23500;53.268;8.308;2023-07-02T12:55:31;22.40;66.90
37658;DHT22;23500;53.268;8.308;2023-07-02T12:57:57;22.40;66.90
37658;DHT22;23500;53.268;8.308;2023-07-02T13:00:22;22.40;66.90
37658;DHT22;23500;53.268;8.308;2023-07-02T13:02:49;22.40;66.90
37658;DHT22;23500;53.268;8.308;2023-07-02T13:05:14;22.50;66.90
37658;DHT22;23500;53.268;8.308;2023-07-02T13:07:40;22.40;66.90
37658;DHT22;23500;53.268;8.308;2023-07-02T13:10:06;22.40;66.90
37658;DHT22;23500;53.268;8.308;2023-07-02T13:12:32;22.40;66.90
37658;DHT22;23500;53.268;8.308;2023-07-02T13:14:58;22.40;66.90
37658;DHT22;23500;53.268;8.308;2023-07-02T13:17:26;22.40;66.90
37658;DHT22;23500;53.268;8.308;2023-07-02T13:19:52;22.40;66.90
37658;DHT22;23500;53.268;8.308;2023-07-02T13:22:17;22.40;66.90
37658;DHT22;23500;53.268;8.308;2023-07-02T13:24:44;22.40;66.90
37658;DHT22;23500;53.268;8.308;2023-07-02T13:27:14;22.40;66.80
37658;DHT22;23500;53.268;8.308;2023-07-02T13:29:41;22.40;66.90
37658;DHT22;23500;53.268;8.308;2023-07-02T13:32:07;22.40;66.90
37658;DHT22;23500;53.268;8.308;2023-07-02T13:34:32;22.40;67.00
37658;DHT22;23500;53.268;8.308;2023-07-02T13:37:00;22.40;67.00
37658;DHT22;23500;53.268;8.308;2023-07-02T13:39:28;22.40;67.00
37658;DHT22;23500;53.268;8.308;2023-07-02T13:41:54;22.40;66.90
37658;DHT22;23500;53.268;8.308;2023-07-02T13:44:20;22.40;66.90
37658;DHT22;23500;53.268;8.308;2023-07-02T13:46:47;22.40;66.90
37658;DHT22;23500;53.268;8.308;2023-07-02T13:49:13;22.40;66.80
37658;DHT22;23500;53.268;8.308;2023-07-02T13:51:39;22.40;66.90
37658;DHT22;23500;53.268;8.308;2023-07-02T13:54:04;22.40;66.90
37658;DHT22;23500;53.268;8.308;2023-07-02T13:56:30;22.40;66.90
37658;DHT22;23500;53.268;8.308;2023-07-02T14:01:22;22.40;66.90
37658;DHT22;23500;53.268;8.308;2023-07-02T14:03:47;22.40;66.90
37658;DHT22;23500;53.268;8.308;2023-07-02T14:06:13;22.40;66.80
37658;DHT22;23500;53.268;8.308;2023-07-02T14:08:39;22.40;66.80
37658;DHT22;23500;53.268;8.308;2023-07-02T14:11:05;22.40;66.90
37658;DHT22;23500;53.268;8.308;2023-07-02T14:13:30;22.40;67.60
37658;DHT22;23500;53.268;8.308;2023-07-02T14:15:56;22.40;66.90
37658;DHT22;23500;53.268;8.308;2023-07-02T14:18:22;22.40;66.90
37658;DHT22;23500;53.268;8.308;2023-07-02T14:20:47;22.40;66.90
37658;DHT22;23500;53.268;8.308;2023-07-02T14:23:13;22.40;66.90
37658;DHT22;23500;53.268;8.308;2023-07-02T14:25:39;22.40;66.90
37658;DHT22;23500;53.268;8.308;2023-07-02T14:28:04;22.40;66.90
37658;DHT22;23500;53.268;8.308;2023-07-02T14:30:30;22.40;66.90
37658;DHT22;23500;53.268;8.308;2023-07-02T14:32:56;22.40;66.90
37658;DHT22;23500;53.268;8.308;2023-07-02T14:35:22;22.40;66.90
37658;DHT22;23500;53.268;8.308;2023-07-02T14:37:51;22.40;66.90
37658;DHT22;23500;53.268;8.308;2023-07-02T14:40:17;22.40;66.90
37658;DHT22;23500;53.268;8.308;2023-07-02T14:42:43;22.40;66.90
37658;DHT22;23500;53.268;8.308;2023-07-02T14:45:10;22.40;66.90
37658;DHT22;23500;53.268;8.308;2023-07-02T14:47:35;22.40;66.90
37658;DHT22;23500;53.268;8.308;2023-07-02T14:50:01;22.40;66.90
37658;DHT22;23500;53.268;8.308;2023-07-02T14:52:27;22.40;66.90
37658;DHT22;23500;53.268;8.308;2023-07-02T14:54:53;22.40;67.00
37658;DHT22;23500;53.268;8.308;2023-07-02T14:57:19;22.40;67.00
37658;DHT22;23500;53.268;8.308;2023-07-02T14:59:45;22.40;66.90
37658;DHT22;23500;53.268;8.308;2023-07-02T15:02:13;22.40;66.90
37658;DHT22;23500;53.268;8.308;2023-07-02T15:04:39;22.40;66.90
37658;DHT22;23500;53.268;8.308;2023-07-02T15:07:05;22.40;66.90
37658;DHT22;23500;53.268;8.308;2023-07-02T15:09:30;22.40;66.90
37658;DHT22;23500;53.268;8.308;2023-07-02T15:11:56;22.40;66.90
37658;DHT22;23500;53.268;8.308;2023-07-02T15:14:22;22.40;66.90
37658;DHT22;23500;53.268;8.308;2023-07-02T15:16:47;22.40;66.90
37658;DHT22;23500;53.268;8.308;2023-07-02T15:19:13;22.40;66.90
37658;DHT22;23500;53.268;8.308;2023-07-02T15:21:41;22.40;66.90
37658;DHT22;23500;53.268;8.308;2023-07-02T15:24:07;22.40;66.90
37658;DHT22;23500;53.268;8.308;2023-07-02T15:26:36;22.40;66.90
37658;DHT22;23500;53.268;8.308;2023-07-02T15:29:02;22.40;66.90
37658;DHT22;23500;53.268;8.308;2023-07-02T15:31:28;22.40;66.90